Time;durP1;ratioP1;P1;durP2;ratioP2;P2;SDS_P1;SDS_P2;PMS_P1;PMS_P2;Temp;Humidity;BMP_temperature;BMP_pressure;BME280_temperature;BME280_humidity;BME280_pressure;Samples;Min_cycle;Max_cycle;Signal;HPM_P1;HPM_P2
2023/10/23 00:00:15;;;;;;;5.55;1.80;;;;;;;;;;10398655;28;20034;-60
2023/10/23 00:05:16;;;;;;;4.30;1.50;;;;;;;;;;10394534;28;20432;-59
2023/10/23 00:10:17;;;;;;;3.85;1.50;;;;;;;;;;10385692;28;20088;-59
2023/10/23 00:15:17;;;;;;;1.77;1.20;;;;;;;;;;10408169;28;20477;-59
2023/10/23 00:20:18;;;;;;;1.95;1.60;;;;;;;;;;10385964;28;20597;-59
2023/10/23 00:25:18;;;;;;;1.35;1.20;;;;;;;;;;10387012;28;20489;-58
2023/10/23 00:30:19;;;;;;;2.63;1.55;;;;;;;;;;10384637;28;20029;-59
2023/10/23 00:35:20;;;;;;;1.45;1.35;;;;;;;;;;10401336;28;20056;-64
2023/10/23 00:40:20;;;;;;;1.45;1.30;;;;;;;;;;10394568;28;20126;-58
2023/10/23 00:45:21;;;;;;;2.30;1.50;;;;;;;;;;10400639;28;20033;-58
2023/10/23 00:50:22;;;;;;;4.78;1.55;;;;;;;;;;10397786;28;20125;-58
2023/10/23 00:55:22;;;;;;;1.73;1.35;;;;;;;;;;10396191;28;20022;-63
2023/10/23 01:00:23;;;;;;;2.15;1.42;;;;;;;;;;10393892;28;20117;-63
2023/10/23 01:05:24;;;;;;;2.05;1.70;;;;;;;;;;10398144;28;20160;-59
2023/10/23 01:10:24;;;;;;;3.08;1.80;;;;;;;;;;10397988;28;20021;-58
2023/10/23 01:15:26;;;;;;;2.28;1.27;;;;;;;;;;10383913;28;20033;-59
2023/10/23 01:20:30;;;;;;;3.08;1.40;;;;;;;;;;10405605;28;20120;-60
2023/10/23 01:25:31;;;;;;;2.25;1.65;;;;;;;;;;10402264;28;20026;-59
2023/10/23 01:30:32;;;;;;;2.00;1.30;;;;;;;;;;10383957;28;20061;-58
2023/10/23 01:35:33;;;;;;;3.05;1.55;;;;;;;;;;10395419;28;20418;-58
2023/10/23 01:40:33;;;;;;;2.08;1.33;;;;;;;;;;10398114;28;20076;-58
2023/10/23 01:45:34;;;;;;;2.58;1.33;;;;;;;;;;10389869;28;20030;-58
2023/10/23 01:50:36;;;;;;;1.60;1.40;;;;;;;;;;10389763;28;20041;-58
2023/10/23 01:55:36;;;;;;;4.10;1.30;;;;;;;;;;10382396;28;20022;-62
2023/10/23 02:00:37;;;;;;;1.95;1.50;;;;;;;;;;10385721;28;20103;-58
2023/10/23 02:05:37;;;;;;;1.42;1.30;;;;;;;;;;10394229;28;20033;-59
2023/10/23 02:10:38;;;;;;;1.88;1.20;;;;;;;;;;10402670;28;20060;-59
2023/10/23 02:15:39;;;;;;;1.85;1.20;;;;;;;;;;10380379;28;20030;-59
2023/10/23 02:20:39;;;;;;;4.32;1.40;;;;;;;;;;10392439;28;20033;-59
2023/10/23 02:25:40;;;;;;;1.55;1.33;;;;;;;;;;10386742;28;20380;-58
2023/10/23 02:30:40;;;;;;;1.17;1.08;;;;;;;;;;10372709;28;20390;-57
2023/10/23 02:35:42;;;;;;;3.70;1.20;;;;;;;;;;10391876;28;20034;-64
2023/10/23 02:40:51;;;;;;;1.50;1.40;;;;;;;;;;10370411;28;20047;-63
2023/10/23 02:45:52;;;;;;;1.75;1.17;;;;;;;;;;10395764;28;20034;-62
2023/10/23 02:50:57;;;;;;;1.92;1.27;;;;;;;;;;10393766;28;20060;-62
2023/10/23 02:55:58;;;;;;;1.75;1.30;;;;;;;;;;10391347;28;20041;-63
2023/10/23 03:00:58;;;;;;;2.40;1.30;;;;;;;;;;10397387;28;20045;-62
2023/10/23 03:05:59;;;;;;;2.35;1.35;;;;;;;;;;10403990;28;20421;-63
2023/10/23 03:10:59;;;;;;;2.40;1.23;;;;;;;;;;10404216;28;20446;-63
2023/10/23 03:16:00;;;;;;;1.20;1.02;;;;;;;;;;10399701;28;20397;-62
2023/10/23 03:21:02;;;;;;;2.42;1.30;;;;;;;;;;10394807;28;20029;-62
2023/10/23 03:26:02;;;;;;;1.48;1.20;;;;;;;;;;10392396;28;20097;-61
2023/10/23 03:31:03;;;;;;;1.15;1.10;;;;;;;;;;10386460;28;20032;-58
2023/10/23 03:36:04;;;;;;;1.38;1.20;;;;;;;;;;10390268;28;20083;-60
2023/10/23 03:41:04;;;;;;;1.30;1.13;;;;;;;;;;10392483;28;20461;-60
2023/10/23 03:46:05;;;;;;;3.67;1.13;;;;;;;;;;10391264;28;20370;-58
2023/10/23 03:51:06;;;;;;;1.13;1.00;;;;;;;;;;10372568;28;20049;-58
2023/10/23 03:56:07;;;;;;;1.05;1.02;;;;;;;;;;10407783;28;20430;-58
2023/10/23 04:01:07;;;;;;;1.27;1.17;;;;;;;;;;10381172;28;20036;-60
2023/10/23 04:06:08;;;;;;;1.25;1.15;;;;;;;;;;10392337;28;20030;-58
2023/10/23 04:11:12;;;;;;;2.70;1.00;;;;;;;;;;10389540;28;20033;-57
2023/10/23 04:16:14;;;;;;;4.75;1.08;;;;;;;;;;10375215;28;20033;-57
2023/10/23 04:21:15;;;;;;;0.95;0.95;;;;;;;;;;10396700;28;20461;-60
2023/10/23 04:26:15;;;;;;;1.15;1.05;;;;;;;;;;10401665;28;20029;-60
2023/10/23 04:31:16;;;;;;;1.30;1.20;;;;;;;;;;10413064;28;20373;-60
2023/10/23 04:36:17;;;;;;;2.50;1.17;;;;;;;;;;10406223;28;20448;-62
2023/10/23 04:41:19;;;;;;;1.48;1.30;;;;;;;;;;10403699;28;20033;-61
2023/10/23 04:46:20;;;;;;;1.70;1.20;;;;;;;;;;10398265;28;20037;-62
2023/10/23 04:51:21;;;;;;;1.83;1.20;;;;;;;;;;10411240;28;20080;-64
2023/10/23 04:56:21;;;;;;;1.10;1.00;;;;;;;;;;10403296;28;20079;-63
2023/10/23 05:01:24;;;;;;;1.17;1.10;;;;;;;;;;10389622;28;20041;-65
2023/10/23 05:06:26;;;;;;;2.83;1.27;;;;;;;;;;10396919;28;20113;-64
2023/10/23 05:11:26;;;;;;;1.75;1.08;;;;;;;;;;10382469;28;20041;-61
2023/10/23 05:16:27;;;;;;;1.52;1.15;;;;;;;;;;10401317;28;20515;-64
2023/10/23 05:21:28;;;;;;;0.90;0.90;;;;;;;;;;10392506;28;20033;-64
2023/10/23 05:26:28;;;;;;;1.00;1.00;;;;;;;;;;10409712;28;20091;-65
2023/10/23 05:31:29;;;;;;;1.85;1.10;;;;;;;;;;10393313;28;20029;-58
2023/10/23 05:36:29;;;;;;;1.58;1.20;;;;;;;;;;10389869;28;20064;-59
2023/10/23 05:41:30;;;;;;;1.42;0.93;;;;;;;;;;10392870;28;20084;-59
2023/10/23 05:46:30;;;;;;;1.10;0.90;;;;;;;;;;10391132;28;20036;-59
2023/10/23 05:51:31;;;;;;;1.00;1.00;;;;;;;;;;10403894;28;20049;-59
2023/10/23 05:56:32;;;;;;;4.63;1.10;;;;;;;;;;10408254;28;20036;-59
2023/10/23 06:01:33;;;;;;;1.33;1.10;;;;;;;;;;10404424;28;20032;-59
2023/10/23 06:06:34;;;;;;;1.90;1.30;;;;;;;;;;10403302;28;20024;-59
2023/10/23 06:11:34;;;;;;;0.80;0.80;;;;;;;;;;10407212;28;20041;-59
2023/10/23 06:16:36;;;;;;;2.83;1.50;;;;;;;;;;10397186;28;20021;-58
2023/10/23 06:21:36;;;;;;;1.77;1.17;;;;;;;;;;10413178;28;20037;-58
2023/10/23 06:26:37;;;;;;;0.85;0.85;;;;;;;;;;10404891;28;20018;-59
2023/10/23 06:31:38;;;;;;;3.78;1.13;;;;;;;;;;10396885;28;20044;-59
2023/10/23 06:36:41;;;;;;;2.45;1.33;;;;;;;;;;10387195;28;20091;-60
2023/10/23 06:41:42;;;;;;;1.50;1.25;;;;;;;;;;10388037;28;20025;-61
2023/10/23 06:46:42;;;;;;;1.10;1.10;;;;;;;;;;10398202;28;20030;-61
2023/10/23 06:51:43;;;;;;;8.75;1.25;;;;;;;;;;10383342;28;20393;-60
2023/10/23 06:56:44;;;;;;;2.03;1.60;;;;;;;;;;10405671;28;20037;-60
2023/10/23 07:01:45;;;;;;;1.85;1.30;;;;;;;;;;10398456;28;20424;-58
2023/10/23 07:06:45;;;;;;;8.35;1.52;;;;;;;;;;10373651;28;20041;-64
2023/10/23 07:11:52;;;;;;;5.90;1.80;;;;;;;;;;10380628;28;20038;-62
2023/10/23 07:16:53;;;;;;;7.20;2.20;;;;;;;;;;10368080;28;20025;-65
2023/10/23 07:21:53;;;;;;;14.00;2.10;;;;;;;;;;10385978;28;20531;-64
2023/10/23 07:26:54;;;;;;;15.20;2.50;;;;;;;;;;10398938;28;20456;-66
2023/10/23 07:31:54;;;;;;;11.13;2.60;;;;;;;;;;10394023;28;20099;-65
2023/10/23 07:36:55;;;;;;;6.18;2.08;;;;;;;;;;10406258;28;20033;-59
2023/10/23 07:41:55;;;;;;;17.38;2.50;;;;;;;;;;10387105;28;20034;-58
2023/10/23 07:46:56;;;;;;;4.28;2.10;;;;;;;;;;10388707;28;20037;-58
2023/10/23 07:51:57;;;;;;;4.97;2.08;;;;;;;;;;10387975;28;20536;-63
2023/10/23 07:56:57;;;;;;;4.68;2.03;;;;;;;;;;10388399;28;20029;-63
2023/10/23 08:01:58;;;;;;;3.85;1.85;;;;;;;;;;10391805;28;20038;-60
2023/10/23 08:06:59;;;;;;;4.03;2.22;;;;;;;;;;10399450;28;20534;-58
2023/10/23 08:12:00;;;;;;;3.88;1.70;;;;;;;;;;10394388;28;20033;-59
2023/10/23 08:17:00;;;;;;;4.63;1.60;;;;;;;;;;10388445;28;20037;-59
2023/10/23 08:22:01;;;;;;;4.43;1.45;;;;;;;;;;10384407;28;20611;-59
2023/10/23 08:27:02;;;;;;;8.80;2.33;;;;;;;;;;10399683;28;20401;-65
2023/10/23 08:32:03;;;;;;;2.10;1.42;;;;;;;;;;10390827;28;20045;-58
2023/10/23 08:37:04;;;;;;;4.57;1.83;;;;;;;;;;10378820;28;20026;-60
2023/10/23 08:42:05;;;;;;;3.05;1.80;;;;;;;;;;10400800;28;20030;-61
2023/10/23 08:47:05;;;;;;;8.10;1.92;;;;;;;;;;10383837;28;20455;-65
2023/10/23 08:52:10;;;;;;;4.00;1.75;;;;;;;;;;10387801;28;20056;-58
2023/10/23 08:57:11;;;;;;;3.20;1.60;;;;;;;;;;10384901;28;20022;-59
2023/10/23 09:02:13;;;;;;;9.32;1.60;;;;;;;;;;10369497;28;20030;-59
2023/10/23 09:07:13;;;;;;;3.90;1.75;;;;;;;;;;10384361;28;20030;-61
2023/10/23 09:12:55;;;;;;;3.33;1.42;;;;;;;;;;10394900;28;20034;-59
2023/10/23 09:17:58;;;;;;;4.20;1.92;;;;;;;;;;10284760;28;20482;-59
2023/10/23 09:22:59;;;;;;;8.95;2.03;;;;;;;;;;10281512;28;20403;-60
2023/10/23 09:28:00;;;;;;;5.47;2.10;;;;;;;;;;10276049;28;20035;-66
2023/10/23 09:33:00;;;;;;;4.07;2.25;;;;;;;;;;10270221;28;20043;-64
2023/10/23 09:38:11;;;;;;;6.72;2.13;;;;;;;;;;10276480;28;20039;-59
2023/10/23 09:43:13;;;;;;;5.40;2.05;;;;;;;;;;10278103;28;20031;-60
2023/10/23 09:48:15;;;;;;;2.70;1.77;;;;;;;;;;10282880;28;20380;-57
2023/10/23 09:53:19;;;;;;;4.82;1.60;;;;;;;;;;10376486;28;20117;-59
2023/10/23 09:58:22;;;;;;;3.28;1.60;;;;;;;;;;10399230;28;20485;-59
2023/10/23 10:03:25;;;;;;;4.88;1.77;;;;;;;;;;10379868;28;20033;-59
2023/10/23 10:08:35;;;;;;;4.53;1.83;;;;;;;;;;10376096;28;20129;-65
2023/10/23 10:13:36;;;;;;;4.70;1.65;;;;;;;;;;10383749;28;20037;-59
2023/10/23 10:18:38;;;;;;;4.63;1.70;;;;;;;;;;10386481;28;20590;-62
2023/10/23 10:23:41;;;;;;;3.08;1.80;;;;;;;;;;10383547;28;20045;-62
2023/10/23 10:28:41;;;;;;;4.25;1.75;;;;;;;;;;10399807;28;20046;-60
2023/10/23 10:33:42;;;;;;;4.20;1.75;;;;;;;;;;10403446;28;20448;-60
2023/10/23 10:38:43;;;;;;;4.40;2.10;;;;;;;;;;10390189;28;20030;-57
2023/10/23 10:43:52;;;;;;;3.95;2.20;;;;;;;;;;10398473;28;20029;-58
2023/10/23 10:48:54;;;;;;;1.98;1.60;;;;;;;;;;10383291;28;20484;-59
2023/10/23 10:54:03;;;;;;;7.35;2.10;;;;;;;;;;10400337;28;20077;-62
2023/10/23 10:59:04;;;;;;;5.35;2.22;;;;;;;;;;10381779;28;20022;-61
2023/10/23 11:04:05;;;;;;;6.68;2.03;;;;;;;;;;10380771;28;20034;-58
2023/10/23 11:09:08;;;;;;;4.63;1.77;;;;;;;;;;10384598;28;20038;-64
2023/10/23 11:14:08;;;;;;;6.28;1.80;;;;;;;;;;10389347;28;20037;-59
2023/10/23 11:19:09;;;;;;;13.63;2.00;;;;;;;;;;10386599;28;20013;-60
2023/10/23 11:24:09;;;;;;;4.25;1.73;;;;;;;;;;10384148;28;20052;-59
2023/10/23 11:29:10;;;;;;;3.78;1.77;;;;;;;;;;10381047;28;20029;-59
2023/10/23 11:34:10;;;;;;;3.78;1.75;;;;;;;;;;10366563;28;20051;-60
2023/10/23 11:39:13;;;;;;;5.65;2.20;;;;;;;;;;10392740;28;20022;-65
2023/10/23 11:44:14;;;;;;;2.85;1.73;;;;;;;;;;10392037;28;20071;-58
2023/10/23 11:54:31;;;;;;;6.22;1.80;;;;;;;;;;10312316;28;20173;-60
2023/10/23 11:59:32;;;;;;;3.75;1.73;;;;;;;;;;10307647;28;20089;-60
2023/10/23 12:04:35;;;;;;;2.22;1.50;;;;;;;;;;10288804;28;20026;-60
2023/10/23 12:09:37;;;;;;;3.38;1.88;;;;;;;;;;10284397;28;20174;-61
2023/10/23 12:14:37;;;;;;;3.95;1.80;;;;;;;;;;10286260;28;20147;-61
2023/10/23 12:19:38;;;;;;;4.47;1.65;;;;;;;;;;10281102;28;20493;-62
2023/10/23 12:24:38;;;;;;;3.65;1.60;;;;;;;;;;10283850;28;20058;-60
2023/10/23 12:29:39;;;;;;;6.43;2.05;;;;;;;;;;10280599;28;20034;-59
2023/10/23 12:34:39;;;;;;;3.58;1.63;;;;;;;;;;10289279;28;20023;-60
2023/10/23 12:39:40;;;;;;;4.30;1.55;;;;;;;;;;10275507;28;20027;-62
2023/10/23 12:44:41;;;;;;;3.45;1.67;;;;;;;;;;10283290;28;20038;-61
2023/10/23 12:49:42;;;;;;;1.95;1.63;;;;;;;;;;10273790;28;20616;-60
2023/10/23 12:54:43;;;;;;;5.53;1.63;;;;;;;;;;10281477;28;20087;-60
2023/10/23 12:59:43;;;;;;;5.82;1.90;;;;;;;;;;10299743;28;20022;-60
2023/10/23 13:04:44;;;;;;;3.42;1.48;;;;;;;;;;10292204;28;20509;-61
2023/10/23 13:09:44;;;;;;;3.20;1.38;;;;;;;;;;10277915;28;20053;-60
2023/10/23 13:14:45;;;;;;;2.83;1.52;;;;;;;;;;10291781;28;20023;-62
2023/10/23 13:19:45;;;;;;;2.55;1.50;;;;;;;;;;10290653;28;20120;-61
2023/10/23 13:24:46;;;;;;;3.03;1.30;;;;;;;;;;10290631;28;20114;-61
2023/10/23 13:29:47;;;;;;;5.05;1.60;;;;;;;;;;10287660;28;20407;-61
2023/10/23 13:34:48;;;;;;;2.55;1.30;;;;;;;;;;10287827;28;20523;-61
2023/10/23 13:39:48;;;;;;;3.22;1.50;;;;;;;;;;10289658;28;20034;-60
2023/10/23 13:44:49;;;;;;;3.58;1.50;;;;;;;;;;10286371;28;20027;-62
2023/10/23 13:49:50;;;;;;;2.45;1.45;;;;;;;;;;10290079;28;20043;-61
2023/10/23 13:54:51;;;;;;;1.55;1.20;;;;;;;;;;10289574;28;20060;-62
2023/10/23 13:59:51;;;;;;;4.05;1.30;;;;;;;;;;10287777;28;20081;-61
2023/10/23 14:04:52;;;;;;;4.22;1.60;;;;;;;;;;10284169;28;20471;-60
2023/10/23 14:09:52;;;;;;;2.53;1.20;;;;;;;;;;10284022;28;20116;-62
2023/10/23 14:14:53;;;;;;;4.07;1.38;;;;;;;;;;10276952;28;20035;-61
2023/10/23 14:19:53;;;;;;;1.65;1.40;;;;;;;;;;10278793;28;20042;-61
2023/10/23 14:24:55;;;;;;;3.78;1.52;;;;;;;;;;10277305;28;20027;-60
2023/10/23 14:29:56;;;;;;;1.92;1.30;;;;;;;;;;10276364;28;20379;-62
2023/10/23 14:34:56;;;;;;;4.72;1.80;;;;;;;;;;10280413;28;20035;-62
2023/10/23 14:39:57;;;;;;;3.05;1.30;;;;;;;;;;10267611;28;20038;-62
2023/10/23 14:44:57;;;;;;;1.33;1.10;;;;;;;;;;10262985;28;20398;-60
2023/10/23 14:50:03;;;;;;;2.47;1.13;;;;;;;;;;10272030;28;20039;-63
2023/10/23 14:55:05;;;;;;;7.03;1.30;;;;;;;;;;10273661;28;20043;-61
2023/10/23 15:00:07;;;;;;;2.70;1.42;;;;;;;;;;10257680;28;20143;-59
2023/10/23 15:05:08;;;;;;;1.50;1.20;;;;;;;;;;10275148;28;20038;-61
2023/10/23 15:10:09;;;;;;;2.80;1.20;;;;;;;;;;10279426;28;20027;-62
2023/10/23 15:15:10;;;;;;;5.03;1.50;;;;;;;;;;10281902;28;20027;-62
2023/10/23 15:20:11;;;;;;;2.42;1.50;;;;;;;;;;10277556;28;20474;-59
2023/10/23 15:25:12;;;;;;;2.25;1.40;;;;;;;;;;10274111;28;20043;-60
2023/10/23 15:30:13;;;;;;;2.72;1.30;;;;;;;;;;10283339;28;20111;-61
2023/10/23 15:35:14;;;;;;;3.25;1.67;;;;;;;;;;10287727;28;20364;-62
2023/10/23 15:40:16;;;;;;;2.17;1.40;;;;;;;;;;10283975;28;20035;-62
2023/10/23 15:45:17;;;;;;;4.05;1.23;;;;;;;;;;10276541;28;20037;-61
2023/10/23 15:50:17;;;;;;;1.80;1.20;;;;;;;;;;10281701;28;20047;-60
2023/10/23 15:55:38;;;;;;;3.08;1.30;;;;;;;;;;10284528;28;20081;-62
2023/10/23 16:00:38;;;;;;;3.75;1.48;;;;;;;;;;10189401;29;20115;-62
2023/10/23 16:05:42;;;;;;;1.75;1.20;;;;;;;;;;10200064;29;20614;-62
2023/10/23 16:10:47;;;;;;;2.13;1.13;;;;;;;;;;10194013;29;20088;-62
2023/10/23 16:15:48;;;;;;;2.42;1.40;;;;;;;;;;10196460;29;20110;-62
2023/10/23 16:20:51;;;;;;;2.40;1.40;;;;;;;;;;10198880;29;20455;-61
2023/10/23 16:25:55;;;;;;;3.08;1.42;;;;;;;;;;10205220;29;20048;-62
2023/10/23 16:30:55;;;;;;;3.75;1.60;;;;;;;;;;10205381;29;20040;-59
2023/10/23 16:35:56;;;;;;;2.30;1.50;;;;;;;;;;10240539;28;20082;-61
2023/10/23 16:40:56;;;;;;;1.67;1.30;;;;;;;;;;10277997;28;20034;-62
2023/10/23 16:45:58;;;;;;;3.15;1.38;;;;;;;;;;10264131;28;20035;-63
2023/10/23 16:51:05;;;;;;;9.88;1.20;;;;;;;;;;10265866;28;20506;-63
2023/10/23 16:56:06;;;;;;;4.22;1.02;;;;;;;;;;10291131;28;20019;-60
2023/10/23 17:01:07;;;;;;;3.72;1.60;;;;;;;;;;10287045;28;20027;-60
2023/10/23 17:06:08;;;;;;;2.75;1.40;;;;;;;;;;10290033;28;20118;-62
2023/10/23 17:11:10;;;;;;;1.75;1.17;;;;;;;;;;10287991;28;20479;-60
2023/10/23 17:16:12;;;;;;;4.47;1.67;;;;;;;;;;10286442;28;20666;-60
2023/10/23 17:21:13;;;;;;;6.45;2.17;;;;;;;;;;10285098;28;20661;-60
2023/10/23 17:26:13;;;;;;;10.68;1.98;;;;;;;;;;10281298;28;20109;-60
2023/10/23 17:31:14;;;;;;;6.18;2.25;;;;;;;;;;10287389;28;20031;-62
2023/10/23 17:36:17;;;;;;;9.65;2.17;;;;;;;;;;10286960;28;20030;-62
2023/10/23 17:41:17;;;;;;;7.82;2.20;;;;;;;;;;10289614;28;20038;-59
2023/10/23 17:46:18;;;;;;;7.93;2.08;;;;;;;;;;10278535;28;20479;-61
2023/10/23 17:51:19;;;;;;;7.10;2.17;;;;;;;;;;10272140;28;20059;-61
2023/10/23 17:56:19;;;;;;;9.52;2.60;;;;;;;;;;10272215;28;20031;-62
2023/10/23 18:01:20;;;;;;;7.78;3.38;;;;;;;;;;10276814;28;20037;-61
2023/10/23 18:06:21;;;;;;;6.80;2.60;;;;;;;;;;10270798;28;20019;-62
2023/10/23 18:11:21;;;;;;;8.40;3.10;;;;;;;;;;10269388;28;20479;-61
2023/10/23 18:16:22;;;;;;;8.82;2.75;;;;;;;;;;10269797;28;20026;-61
2023/10/23 18:21:23;;;;;;;9.05;3.63;;;;;;;;;;10270952;28;20597;-61
2023/10/23 18:26:24;;;;;;;14.38;4.05;;;;;;;;;;10277278;28;20177;-65
2023/10/23 18:31:25;;;;;;;9.50;3.90;;;;;;;;;;10262094;28;20123;-64
2023/10/23 18:36:25;;;;;;;7.70;3.78;;;;;;;;;;10271055;28;20162;-61
2023/10/23 18:41:26;;;;;;;8.80;4.03;;;;;;;;;;10284562;28;20031;-61
2023/10/23 18:46:27;;;;;;;8.88;4.13;;;;;;;;;;10280990;28;20618;-61
2023/10/23 18:51:27;;;;;;;7.53;4.00;;;;;;;;;;10286918;28;20050;-60
2023/10/23 18:56:28;;;;;;;13.48;4.20;;;;;;;;;;10284036;28;20031;-61
2023/10/23 19:01:28;;;;;;;6.95;3.97;;;;;;;;;;10282773;28;20475;-62
2023/10/23 19:06:29;;;;;;;8.38;3.55;;;;;;;;;;10289680;28;20579;-61
2023/10/23 19:11:31;;;;;;;8.40;3.85;;;;;;;;;;10277996;28;20432;-62
2023/10/23 19:16:31;;;;;;;9.25;3.60;;;;;;;;;;10279009;28;20033;-61
2023/10/23 19:21:32;;;;;;;11.15;3.92;;;;;;;;;;10267728;28;20030;-61
2023/10/23 19:26:32;;;;;;;5.88;3.25;;;;;;;;;;10260924;28;20035;-61
2023/10/23 19:31:33;;;;;;;6.43;3.95;;;;;;;;;;10263027;28;20047;-61
2023/10/23 19:36:34;;;;;;;9.07;3.25;;;;;;;;;;10265180;28;20031;-66
2023/10/23 19:41:50;;;;;;;10.35;4.45;;;;;;;;;;10266999;28;20041;-61
2023/10/23 19:46:51;;;;;;;7.07;3.78;;;;;;;;;;10264513;28;20035;-60
2023/10/23 19:51:53;;;;;;;6.78;3.60;;;;;;;;;;10248957;28;20047;-61
2023/10/23 19:56:55;;;;;;;5.90;3.38;;;;;;;;;;10261272;28;20027;-62
2023/10/23 20:01:59;;;;;;;6.57;3.53;;;;;;;;;;10268181;28;20033;-61
2023/10/23 20:07:00;;;;;;;11.82;3.75;;;;;;;;;;10262524;28;20038;-63
2023/10/23 20:12:01;;;;;;;5.10;3.15;;;;;;;;;;10271485;28;20022;-64
2023/10/23 20:17:02;;;;;;;12.32;4.57;;;;;;;;;;10282836;28;20173;-63
2023/10/23 20:22:03;;;;;;;13.15;4.85;;;;;;;;;;10279714;28;20550;-64
2023/10/23 20:27:04;;;;;;;8.02;4.43;;;;;;;;;;10282227;28;20092;-64
2023/10/23 20:32:05;;;;;;;11.45;4.43;;;;;;;;;;10277604;28;20027;-64
2023/10/23 20:37:05;;;;;;;10.73;4.65;;;;;;;;;;10276412;28;20023;-65
2023/10/23 20:42:06;;;;;;;12.35;4.57;;;;;;;;;;10277707;28;20035;-65
2023/10/23 20:47:14;;;;;;;10.40;5.30;;;;;;;;;;10263307;28;20019;-65
2023/10/23 20:52:14;;;;;;;14.23;5.68;;;;;;;;;;10277716;28;20061;-65
2023/10/23 20:57:15;;;;;;;10.57;5.38;;;;;;;;;;10282567;28;20030;-63
2023/10/23 21:02:15;;;;;;;11.98;4.60;;;;;;;;;;10279567;28;20030;-64
2023/10/23 21:07:16;;;;;;;9.40;4.80;;;;;;;;;;10286428;28;20035;-66
2023/10/23 21:12:17;;;;;;;7.75;4.18;;;;;;;;;;10287184;28;20041;-64
2023/10/23 21:17:21;;;;;;;9.82;3.95;;;;;;;;;;10289088;28;20029;-65
2023/10/23 21:22:21;;;;;;;8.30;4.07;;;;;;;;;;10287742;28;20487;-61
2023/10/23 21:27:23;;;;;;;7.43;3.78;;;;;;;;;;10290002;28;20162;-63
2023/10/23 21:32:24;;;;;;;13.63;4.20;;;;;;;;;;10290234;28;20065;-62
2023/10/23 21:37:24;;;;;;;7.28;3.53;;;;;;;;;;10287595;28;20039;-63
2023/10/23 21:42:25;;;;;;;10.48;3.60;;;;;;;;;;10283939;28;20030;-65
2023/10/23 21:47:25;;;;;;;6.97;3.28;;;;;;;;;;10289061;28;20030;-61
2023/10/23 21:52:26;;;;;;;5.75;3.53;;;;;;;;;;10290957;28;20042;-63
2023/10/23 21:57:27;;;;;;;7.95;3.80;;;;;;;;;;10291844;28;20473;-61
2023/10/23 22:02:28;;;;;;;8.25;3.70;;;;;;;;;;10270729;28;20054;-62
2023/10/23 22:07:29;;;;;;;10.70;3.50;;;;;;;;;;10288423;28;20034;-63
2023/10/23 22:12:30;;;;;;;5.72;3.58;;;;;;;;;;10282836;28;20039;-63
2023/10/23 22:17:31;;;;;;;8.23;3.08;;;;;;;;;;10283450;28;20094;-63
2023/10/23 22:22:31;;;;;;;12.32;3.25;;;;;;;;;;10289246;28;20038;-63
2023/10/23 22:27:33;;;;;;;9.20;2.90;;;;;;;;;;10290207;28;20026;-63
2023/10/23 22:32:34;;;;;;;5.38;2.90;;;;;;;;;;10291628;28;20122;-63
2023/10/23 22:37:35;;;;;;;7.95;2.90;;;;;;;;;;10269989;28;20492;-63
2023/10/23 22:42:35;;;;;;;4.57;3.10;;;;;;;;;;10286536;28;20034;-63
2023/10/23 22:47:36;;;;;;;5.50;2.75;;;;;;;;;;10289249;28;20034;-62
2023/10/23 22:52:37;;;;;;;7.47;3.13;;;;;;;;;;10286555;28;20054;-63
2023/10/23 22:57:39;;;;;;;4.80;2.55;;;;;;;;;;10286865;28;20043;-63
2023/10/23 23:02:40;;;;;;;3.38;2.65;;;;;;;;;;10288712;28;20031;-64
2023/10/23 23:07:43;;;;;;;14.05;3.08;;;;;;;;;;10288154;28;20027;-66
2023/10/23 23:12:43;;;;;;;4.60;2.65;;;;;;;;;;10287113;28;20035;-64
2023/10/23 23:17:46;;;;;;;5.07;2.88;;;;;;;;;;10288642;28;20027;-62
2023/10/23 23:22:46;;;;;;;10.02;2.72;;;;;;;;;;10283196;28;20069;-63
2023/10/23 23:27:47;;;;;;;3.17;2.63;;;;;;;;;;10281436;28;20491;-64
2023/10/23 23:32:47;;;;;;;5.47;2.67;;;;;;;;;;10283492;28;20038;-64
2023/10/23 23:37:48;;;;;;;5.55;2.83;;;;;;;;;;10285595;28;20030;-63
2023/10/23 23:42:48;;;;;;;4.30;2.85;;;;;;;;;;10277180;28;20090;-65
2023/10/23 23:47:49;;;;;;;3.38;2.22;;;;;;;;;;10271548;28;20037;-62
2023/10/23 23:52:50;;;;;;;3.30;2.60;;;;;;;;;;10269815;28;20050;-62
2023/10/23 23:57:50;;;;;;;5.43;2.47;;;;;;;;;;10259145;28;20113;-63
